sensor_id;sensor_type;location;lat;lon;timestamp;pressure;altitude;pressure_sealevel;temperature;humidity
36222;BME280;22266;52.340;4.962;2023-05-18T00:00:01;102882.13;;;10.71;56.99
36222;BME280;22266;52.340;4.962;2023-05-18T00:02:30;102880.97;;;10.73;56.41
36222;BME280;22266;52.340;4.962;2023-05-18T00:04:56;102887.81;;;10.68;56.72
36222;BME280;22266;52.340;4.962;2023-05-18T00:07:27;102886.69;;;10.70;56.58
36222;BME280;22266;52.340;4.962;2023-05-18T00:09:55;102881.13;;;10.72;56.30
36222;BME280;22266;52.340;4.962;2023-05-18T00:12:21;102886.34;;;10.73;55.81
36222;BME280;22266;52.340;4.962;2023-05-18T00:14:48;102890.06;;;10.72;55.63
36222;BME280;22266;52.340;4.962;2023-05-18T00:17:14;102886.53;;;10.72;55.57
36222;BME280;22266;52.340;4.962;2023-05-18T00:19:41;102900.16;;;10.70;55.42
36222;BME280;22266;52.340;4.962;2023-05-18T00:22:12;102887.13;;;10.66;55.67
36222;BME280;22266;52.340;4.962;2023-05-18T00:24:44;102892.38;;;10.57;55.68
36222;BME280;22266;52.340;4.962;2023-05-18T00:27:11;102896.63;;;10.50;54.93
36222;BME280;22266;52.340;4.962;2023-05-18T00:29:38;102888.38;;;10.52;55.34
36222;BME280;22266;52.340;4.962;2023-05-18T00:32:05;102892.66;;;10.54;55.25
36222;BME280;22266;52.340;4.962;2023-05-18T00:34:31;102895.91;;;10.58;55.43
36222;BME280;22266;52.340;4.962;2023-05-18T00:36:58;102895.91;;;10.58;55.44
36222;BME280;22266;52.340;4.962;2023-05-18T00:39:24;102892.22;;;10.39;54.53
36222;BME280;22266;52.340;4.962;2023-05-18T00:41:51;102891.69;;;10.26;55.35
36222;BME280;22266;52.340;4.962;2023-05-18T00:44:18;102887.97;;;10.27;55.11
36222;BME280;22266;52.340;4.962;2023-05-18T00:46:44;102883.28;;;10.20;55.50
36222;BME280;22266;52.340;4.962;2023-05-18T00:49:11;102888.13;;;10.26;55.35
36222;BME280;22266;52.340;4.962;2023-05-18T00:51:38;102890.91;;;10.24;55.21
36222;BME280;22266;52.340;4.962;2023-05-18T00:54:06;102891.69;;;10.26;55.08
36222;BME280;22266;52.340;4.962;2023-05-18T00:56:33;102892.34;;;10.19;54.70
36222;BME280;22266;52.340;4.962;2023-05-18T00:59:01;102888.81;;;10.18;54.64
36222;BME280;22266;52.340;4.962;2023-05-18T01:01:30;102887.53;;;10.22;55.23
36222;BME280;22266;52.340;4.962;2023-05-18T01:03:59;102895.22;;;10.27;54.62
36222;BME280;22266;52.340;4.962;2023-05-18T01:06:30;102890.25;;;10.32;54.66
36222;BME280;22266;52.340;4.962;2023-05-18T01:09:08;102883.59;;;10.36;54.89
36222;BME280;22266;52.340;4.962;2023-05-18T01:11:42;102896.78;;;10.39;54.60
36222;BME280;22266;52.340;4.962;2023-05-18T01:14:17;102903.00;;;10.30;53.41
36222;BME280;22266;52.340;4.962;2023-05-18T01:17:05;102896.16;;;10.16;54.64
36222;BME280;22266;52.340;4.962;2023-05-18T01:28:13;102897.75;;;10.28;55.11
36222;BME280;22266;52.340;4.962;2023-05-18T01:30:42;102887.72;;;10.30;55.00
36222;BME280;22266;52.340;4.962;2023-05-18T01:33:10;102893.09;;;10.30;54.94
36222;BME280;22266;52.340;4.962;2023-05-18T01:35:38;102888.41;;;10.32;54.43
36222;BME280;22266;52.340;4.962;2023-05-18T01:38:06;102893.09;;;10.30;54.14
36222;BME280;22266;52.340;4.962;2023-05-18T01:41:02;102891.25;;;10.31;54.53
36222;BME280;22266;52.340;4.962;2023-05-18T01:43:35;102892.75;;;10.24;53.69
36222;BME280;22266;52.340;4.962;2023-05-18T01:46:23;102894.31;;;10.16;54.53
36222;BME280;22266;52.340;4.962;2023-05-18T01:48:55;102889.50;;;10.10;54.53
36222;BME280;22266;52.340;4.962;2023-05-18T01:51:28;102895.59;;;10.12;54.41
36222;BME280;22266;52.340;4.962;2023-05-18T01:54:06;102896.31;;;10.14;54.54
36222;BME280;22266;52.340;4.962;2023-05-18T01:56:37;102899.84;;;10.15;54.83
36222;BME280;22266;52.340;4.962;2023-05-18T01:59:05;102898.59;;;10.09;54.04
36222;BME280;22266;52.340;4.962;2023-05-18T02:01:32;102904.25;;;10.06;54.53
36222;BME280;22266;52.340;4.962;2023-05-18T02:03:58;102895.75;;;10.11;54.38
36222;BME280;22266;52.340;4.962;2023-05-18T02:06:25;102897.44;;;10.12;55.12
36222;BME280;22266;52.340;4.962;2023-05-18T02:08:52;102899.44;;;10.10;54.69
36222;BME280;22266;52.340;4.962;2023-05-18T02:11:19;102909.47;;;10.08;54.53
36222;BME280;22266;52.340;4.962;2023-05-18T02:13:46;102904.81;;;10.10;55.12
36222;BME280;22266;52.340;4.962;2023-05-18T02:16:13;102897.75;;;10.09;55.12
36222;BME280;22266;52.340;4.962;2023-05-18T02:18:40;102903.13;;;10.09;55.33
36222;BME280;22266;52.340;4.962;2023-05-18T02:21:07;102898.72;;;10.08;54.83
36222;BME280;22266;52.340;4.962;2023-05-18T02:23:35;102893.91;;;10.11;55.03
36222;BME280;22266;52.340;4.962;2023-05-18T02:26:02;102889.09;;;10.05;55.27
36222;BME280;22266;52.340;4.962;2023-05-18T02:28:28;102898.72;;;9.98;54.97
36222;BME280;22266;52.340;4.962;2023-05-18T02:31:04;102900.25;;;9.91;55.17
36222;BME280;22266;52.340;4.962;2023-05-18T02:33:31;102901.66;;;9.85;55.44
36222;BME280;22266;52.340;4.962;2023-05-18T02:36:09;102900.94;;;9.83;55.57
36222;BME280;22266;52.340;4.962;2023-05-18T02:38:42;102900.41;;;9.89;55.65
36222;BME280;22266;52.340;4.962;2023-05-18T02:41:09;102893.72;;;9.84;54.83
36222;BME280;22266;52.340;4.962;2023-05-18T02:43:36;102902.09;;;9.90;54.76
36222;BME280;22266;52.340;4.962;2023-05-18T02:46:03;102900.81;;;9.95;54.98
36222;BME280;22266;52.340;4.962;2023-05-18T02:48:31;102903.25;;;9.98;54.99
36222;BME280;22266;52.340;4.962;2023-05-18T02:50:59;102897.00;;;9.97;55.17
36222;BME280;22266;52.340;4.962;2023-05-18T02:53:25;102895.03;;;9.99;55.11
36222;BME280;22266;52.340;4.962;2023-05-18T02:55:57;102895.59;;;10.03;54.86
36222;BME280;22266;52.340;4.962;2023-05-18T02:58:29;102894.44;;;9.96;54.83
36222;BME280;22266;52.340;4.962;2023-05-18T03:01:04;102903.38;;;9.96;54.60
36222;BME280;22266;52.340;4.962;2023-05-18T03:03:38;102897.13;;;9.96;54.99
36222;BME280;22266;52.340;4.962;2023-05-18T03:06:08;102899.72;;;9.97;55.33
36222;BME280;22266;52.340;4.962;2023-05-18T03:08:35;102903.25;;;9.98;55.32
36222;BME280;22266;52.340;4.962;2023-05-18T03:11:02;102887.38;;;9.95;55.76
36222;BME280;22266;52.340;4.962;2023-05-18T03:13:29;102898.28;;;9.93;55.42
36222;BME280;22266;52.340;4.962;2023-05-18T03:15:56;102899.69;;;9.87;55.76
36222;BME280;22266;52.340;4.962;2023-05-18T03:18:23;102891.75;;;9.86;55.85
36222;BME280;22266;52.340;4.962;2023-05-18T03:20:50;102894.72;;;9.83;56.10
36222;BME280;22266;52.340;4.962;2023-05-18T03:23:18;102896.56;;;9.82;56.10
36222;BME280;22266;52.340;4.962;2023-05-18T03:25:47;102903.78;;;9.82;55.92
36222;BME280;22266;52.340;4.962;2023-05-18T03:28:20;102892.44;;;9.78;55.99
36222;BME280;22266;52.340;4.962;2023-05-18T03:30:47;102889.91;;;9.77;55.98
36222;BME280;22266;52.340;4.962;2023-05-18T03:33:14;102892.72;;;9.75;55.99
36222;BME280;22266;52.340;4.962;2023-05-18T03:35:41;102902.78;;;9.73;56.14
36222;BME280;22266;52.340;4.962;2023-05-18T03:38:08;102903.75;;;9.72;56.33
36222;BME280;22266;52.340;4.962;2023-05-18T03:40:36;102902.19;;;9.70;56.45
36222;BME280;22266;52.340;4.962;2023-05-18T03:43:03;102905.88;;;9.69;56.37
36222;BME280;22266;52.340;4.962;2023-05-18T03:45:30;102904.03;;;9.69;56.66
36222;BME280;22266;52.340;4.962;2023-05-18T03:47:57;102902.06;;;9.71;56.46
36222;BME280;22266;52.340;4.962;2023-05-18T03:50:24;102907.44;;;9.71;56.43
36222;BME280;22266;52.340;4.962;2023-05-18T03:52:51;102908.28;;;9.72;56.43
36222;BME280;22266;52.340;4.962;2023-05-18T03:55:18;102898.66;;;9.69;56.29
36222;BME280;22266;52.340;4.962;2023-05-18T03:57:47;102913.94;;;9.69;56.95
36222;BME280;22266;52.340;4.962;2023-05-18T04:00:14;102912.22;;;9.68;56.39
36222;BME280;22266;52.340;4.962;2023-05-18T04:02:44;102914.81;;;9.69;56.61
36222;BME280;22266;52.340;4.962;2023-05-18T04:05:16;102907.44;;;9.71;56.24
36222;BME280;22266;52.340;4.962;2023-05-18T04:07:45;102909.28;;;9.71;56.49
36222;BME280;22266;52.340;4.962;2023-05-18T04:10:12;102914.50;;;9.72;56.29
36222;BME280;22266;52.340;4.962;2023-05-18T04:12:41;102918.06;;;9.73;56.40
36222;BME280;22266;52.340;4.962;2023-05-18T04:15:08;102918.75;;;9.75;55.68
36222;BME280;22266;52.340;4.962;2023-05-18T04:17:35;102919.34;;;9.78;56.03
36222;BME280;22266;52.340;4.962;2023-05-18T04:20:02;102913.13;;;9.78;56.40
36222;BME280;22266;52.340;4.962;2023-05-18T04:22:44;102922.03;;;9.78;55.90
36222;BME280;22266;52.340;4.962;2023-05-18T04:25:16;102917.50;;;9.79;56.13
36222;BME280;22266;52.340;4.962;2023-05-18T04:27:43;102917.66;;;9.77;56.12
36222;BME280;22266;52.340;4.962;2023-05-18T04:30:16;102914.81;;;9.79;56.29
36222;BME280;22266;52.340;4.962;2023-05-18T04:32:43;102920.19;;;9.79;56.02
36222;BME280;22266;52.340;4.962;2023-05-18T04:35:10;102917.34;;;9.71;56.02
36222;BME280;22266;52.340;4.962;2023-05-18T04:37:38;102928.25;;;9.69;55.57
36222;BME280;22266;52.340;4.962;2023-05-18T04:40:12;102925.56;;;9.69;55.43
36222;BME280;22266;52.340;4.962;2023-05-18T04:42:40;102927.34;;;9.59;54.55
36222;BME280;22266;52.340;4.962;2023-05-18T04:45:22;102932.56;;;9.51;54.92
36222;BME280;22266;52.340;4.962;2023-05-18T04:47:52;102931.97;;;9.47;55.19
36222;BME280;22266;52.340;4.962;2023-05-18T04:50:21;102933.28;;;9.53;54.79
36222;BME280;22266;52.340;4.962;2023-05-18T04:52:52;102933.69;;;9.48;55.32
36222;BME280;22266;52.340;4.962;2023-05-18T04:55:21;102940.22;;;9.55;55.81
36222;BME280;22266;52.340;4.962;2023-05-18T04:57:54;102936.72;;;9.64;55.41
36222;BME280;22266;52.340;4.962;2023-05-18T05:00:27;102938.00;;;9.70;55.72
36222;BME280;22266;52.340;4.962;2023-05-18T05:02:55;102930.38;;;9.75;55.47
36222;BME280;22266;52.340;4.962;2023-05-18T05:05:23;102929.22;;;9.68;55.01
36222;BME280;22266;52.340;4.962;2023-05-18T05:07:54;102938.66;;;9.53;55.18
36222;BME280;22266;52.340;4.962;2023-05-18T05:10:24;102935.25;;;9.51;56.12
36222;BME280;22266;52.340;4.962;2023-05-18T05:12:51;102940.53;;;9.62;56.17
36222;BME280;22266;52.340;4.962;2023-05-18T05:15:18;102941.69;;;9.69;56.30
36222;BME280;22266;52.340;4.962;2023-05-18T05:17:47;102939.16;;;9.77;56.85
36222;BME280;22266;52.340;4.962;2023-05-18T05:20:15;102958.25;;;9.74;56.09
36222;BME280;22266;52.340;4.962;2023-05-18T05:22:41;102946.50;;;9.65;55.72
36222;BME280;22266;52.340;4.962;2023-05-18T05:25:10;102948.69;;;9.51;55.47
36222;BME280;22266;52.340;4.962;2023-05-18T05:27:38;102949.78;;;9.38;56.60
36222;BME280;22266;52.340;4.962;2023-05-18T05:30:05;102949.34;;;9.43;56.61
36222;BME280;22266;52.340;4.962;2023-05-18T05:32:34;102953.47;;;9.47;56.37
36222;BME280;22266;52.340;4.962;2023-05-18T05:35:03;102946.56;;;9.45;56.87
36222;BME280;22266;52.340;4.962;2023-05-18T05:37:30;102948.94;;;9.48;56.74
36222;BME280;22266;52.340;4.962;2023-05-18T05:39:57;102955.75;;;9.52;56.17
36222;BME280;22266;52.340;4.962;2023-05-18T05:42:25;102956.34;;;9.55;56.87
36222;BME280;22266;52.340;4.962;2023-05-18T05:44:52;102946.34;;;9.67;56.20
36222;BME280;22266;52.340;4.962;2023-05-18T05:47:19;102950.88;;;9.76;55.90
36222;BME280;22266;52.340;4.962;2023-05-18T05:49:45;102956.91;;;9.89;55.88
36222;BME280;22266;52.340;4.962;2023-05-18T05:52:12;102961.59;;;10.07;55.67
36222;BME280;22266;52.340;4.962;2023-05-18T05:54:40;102963.59;;;10.24;55.44
36222;BME280;22266;52.340;4.962;2023-05-18T05:57:08;102962.38;;;10.38;54.82
36222;BME280;22266;52.340;4.962;2023-05-18T05:59:35;102962.09;;;10.51;53.73
36222;BME280;22266;52.340;4.962;2023-05-18T06:02:01;102964.66;;;10.62;53.79
36222;BME280;22266;52.340;4.962;2023-05-18T06:04:28;102968.44;;;10.69;52.78
36222;BME280;22266;52.340;4.962;2023-05-18T06:06:56;102967.03;;;10.84;53.02
36222;BME280;22266;52.340;4.962;2023-05-18T06:09:22;102963.63;;;10.82;52.36
36222;BME280;22266;52.340;4.962;2023-05-18T06:11:49;102961.66;;;10.75;52.88
36222;BME280;22266;52.340;4.962;2023-05-18T06:14:16;102971.88;;;10.71;53.34
36222;BME280;22266;52.340;4.962;2023-05-18T06:16:43;102972.00;;;10.60;52.29
36222;BME280;22266;52.340;4.962;2023-05-18T06:19:10;102972.31;;;10.37;52.99
36222;BME280;22266;52.340;4.962;2023-05-18T06:21:36;102984.03;;;10.36;53.50
36222;BME280;22266;52.340;4.962;2023-05-18T06:24:03;102975.84;;;10.38;53.59
36222;BME280;22266;52.340;4.962;2023-05-18T06:26:39;102979.94;;;10.32;53.92
36222;BME280;22266;52.340;4.962;2023-05-18T06:29:14;102984.19;;;10.25;53.91
36222;BME280;22266;52.340;4.962;2023-05-18T06:32:02;102988.13;;;10.21;52.96
36222;BME280;22266;52.340;4.962;2023-05-18T06:34:38;102988.66;;;10.15;53.40
36222;BME280;22266;52.340;4.962;2023-05-18T06:37:05;102990.66;;;10.13;53.43
36222;BME280;22266;52.340;4.962;2023-05-18T06:39:31;102989.09;;;10.20;53.96
36222;BME280;22266;52.340;4.962;2023-05-18T06:41:58;102986.41;;;10.20;52.98
36222;BME280;22266;52.340;4.962;2023-05-18T06:44:32;102995.81;;;10.26;53.49
36222;BME280;22266;52.340;4.962;2023-05-18T06:47:08;102994.38;;;10.31;53.08
36222;BME280;22266;52.340;4.962;2023-05-18T06:49:35;102988.47;;;10.37;53.27
36222;BME280;22266;52.340;4.962;2023-05-18T06:52:02;102991.69;;;10.41;52.46
36222;BME280;22266;52.340;4.962;2023-05-18T06:54:29;102993.53;;;10.31;53.42
36222;BME280;22266;52.340;4.962;2023-05-18T06:56:57;102996.94;;;10.33;53.92
36222;BME280;22266;52.340;4.962;2023-05-18T06:59:23;102995.53;;;10.38;55.67
36222;BME280;22266;52.340;4.962;2023-05-18T07:01:50;102996.81;;;10.34;53.68
36222;BME280;22266;52.340;4.962;2023-05-18T07:04:16;102998.59;;;10.24;54.08
36222;BME280;22266;52.340;4.962;2023-05-18T07:06:44;103003.56;;;10.29;54.33
36222;BME280;22266;52.340;4.962;2023-05-18T07:09:11;103004.16;;;10.32;53.41
36222;BME280;22266;52.340;4.962;2023-05-18T07:11:38;103006.81;;;10.23;53.11
36222;BME280;22266;52.340;4.962;2023-05-18T07:14:05;103001.13;;;10.16;52.96
36222;BME280;22266;52.340;4.962;2023-05-18T07:16:32;103009.50;;;10.13;52.96
36222;BME280;22266;52.340;4.962;2023-05-18T07:18:59;103006.72;;;10.44;59.48
36222;BME280;22266;52.340;4.962;2023-05-18T07:21:25;103005.19;;;10.51;53.68
36222;BME280;22266;52.340;4.962;2023-05-18T07:23:52;103004.59;;;10.47;53.45
36222;BME280;22266;52.340;4.962;2023-05-18T07:26:18;103003.63;;;10.58;54.87
36222;BME280;22266;52.340;4.962;2023-05-18T07:28:45;103008.72;;;10.71;57.46
36222;BME280;22266;52.340;4.962;2023-05-18T07:31:13;103005.28;;;10.98;55.34
36222;BME280;22266;52.340;4.962;2023-05-18T07:33:42;103002.13;;;11.22;53.80
36222;BME280;22266;52.340;4.962;2023-05-18T07:36:09;103003.53;;;11.35;52.12
36222;BME280;22266;52.340;4.962;2023-05-18T07:38:36;103014.31;;;11.35;49.41
36222;BME280;22266;52.340;4.962;2023-05-18T07:41:02;103016.91;;;11.08;50.75
36222;BME280;22266;52.340;4.962;2023-05-18T07:43:29;103019.78;;;11.06;52.31
36222;BME280;22266;52.340;4.962;2023-05-18T07:45:56;103022.03;;;11.11;51.26
36222;BME280;22266;52.340;4.962;2023-05-18T07:48:22;103021.19;;;11.01;50.22
36222;BME280;22266;52.340;4.962;2023-05-18T07:50:49;103017.53;;;10.82;50.68
36222;BME280;22266;52.340;4.962;2023-05-18T07:53:15;103018.50;;;10.72;51.80
36222;BME280;22266;52.340;4.962;2023-05-18T07:55:42;103009.88;;;10.78;52.52
36222;BME280;22266;52.340;4.962;2023-05-18T07:58:08;103019.06;;;10.85;51.50
36222;BME280;22266;52.340;4.962;2023-05-18T08:00:35;103022.59;;;10.85;51.91
36222;BME280;22266;52.340;4.962;2023-05-18T08:03:02;103019.22;;;10.64;51.17
36222;BME280;22266;52.340;4.962;2023-05-18T08:05:29;103023.88;;;10.52;52.58
36222;BME280;22266;52.340;4.962;2023-05-18T08:07:56;103030.00;;;10.54;51.94
36222;BME280;22266;52.340;4.962;2023-05-18T08:10:23;103029.41;;;10.60;54.31
36222;BME280;22266;52.340;4.962;2023-05-18T08:12:50;103028.72;;;10.68;55.31
36222;BME280;22266;52.340;4.962;2023-05-18T08:15:17;103024.06;;;10.70;53.41
36222;BME280;22266;52.340;4.962;2023-05-18T08:17:43;103028.00;;;10.56;52.48
36222;BME280;22266;52.340;4.962;2023-05-18T08:20:10;103016.50;;;10.45;51.71
36222;BME280;22266;52.340;4.962;2023-05-18T08:22:37;103029.97;;;10.45;52.75
36222;BME280;22266;52.340;4.962;2023-05-18T08:25:03;103018.91;;;10.48;52.64
36222;BME280;22266;52.340;4.962;2023-05-18T08:27:30;103010.56;;;10.51;52.54
36222;BME280;22266;52.340;4.962;2023-05-18T08:29:56;103013.41;;;10.59;52.97
36222;BME280;22266;52.340;4.962;2023-05-18T08:32:23;103012.41;;;10.50;52.30
36222;BME280;22266;52.340;4.962;2023-05-18T08:34:50;103012.41;;;10.50;52.08
36222;BME280;22266;52.340;4.962;2023-05-18T08:37:17;103021.34;;;10.60;52.38
36222;BME280;22266;52.340;4.962;2023-05-18T08:39:43;103019.09;;;10.66;52.05
36222;BME280;22266;52.340;4.962;2023-05-18T08:42:18;103020.91;;;10.65;51.82
36222;BME280;22266;52.340;4.962;2023-05-18T08:44:57;103015.41;;;10.67;52.56
36222;BME280;22266;52.340;4.962;2023-05-18T08:47:30;103023.91;;;10.62;52.00
36222;BME280;22266;52.340;4.962;2023-05-18T08:50:00;103024.59;;;10.64;51.86
36222;BME280;22266;52.340;4.962;2023-05-18T08:52:34;103025.19;;;10.58;51.18
36222;BME280;22266;52.340;4.962;2023-05-18T08:55:07;103024.19;;;10.49;51.55
36222;BME280;22266;52.340;4.962;2023-05-18T08:57:38;103019.75;;;10.48;52.16
36222;BME280;22266;52.340;4.962;2023-05-18T09:00:05;103012.41;;;10.50;52.08
36222;BME280;22266;52.340;4.962;2023-05-18T09:02:33;103015.38;;;10.57;52.91
36222;BME280;22266;52.340;4.962;2023-05-18T09:05:00;103017.25;;;10.66;52.29
36222;BME280;22266;52.340;4.962;2023-05-18T09:07:28;103011.84;;;10.66;51.76
36222;BME280;22266;52.340;4.962;2023-05-18T09:09:55;103007.84;;;10.89;55.86
36222;BME280;22266;52.340;4.962;2023-05-18T09:12:23;102997.06;;;10.89;53.88
36222;BME280;22266;52.340;4.962;2023-05-18T09:14:50;102996.78;;;10.93;51.00
36222;BME280;22266;52.340;4.962;2023-05-18T09:17:17;102988.31;;;10.87;51.00
36222;BME280;22266;52.340;4.962;2023-05-18T09:19:44;102994.22;;;11.01;54.03
36222;BME280;22266;52.340;4.962;2023-05-18T09:22:10;102983.03;;;10.96;50.67
36222;BME280;22266;52.340;4.962;2023-05-18T09:24:37;102985.75;;;10.96;50.58
36222;BME280;22266;52.340;4.962;2023-05-18T09:27:04;102984.28;;;11.01;50.41
36222;BME280;22266;52.340;4.962;2023-05-18T09:29:31;102979.19;;;11.08;50.00
36222;BME280;22266;52.340;4.962;2023-05-18T09:32:02;102976.41;;;10.90;49.56
36222;BME280;22266;52.340;4.962;2023-05-18T09:34:39;102973.53;;;10.92;52.57
36222;BME280;22266;52.340;4.962;2023-05-18T09:37:08;102976.22;;;11.11;54.06
36222;BME280;22266;52.340;4.962;2023-05-18T09:39:34;102972.59;;;11.30;51.83
36222;BME280;22266;52.340;4.962;2023-05-18T09:42:04;102983.09;;;11.33;50.63
36222;BME280;22266;52.340;4.962;2023-05-18T09:44:32;102977.81;;;11.41;50.75
36222;BME280;22266;52.340;4.962;2023-05-18T09:47:00;102975.63;;;11.54;50.53
36222;BME280;22266;52.340;4.962;2023-05-18T09:49:30;102980.50;;;11.51;50.07
36222;BME280;22266;52.340;4.962;2023-05-18T09:51:57;102978.94;;;11.48;50.01
36222;BME280;22266;52.340;4.962;2023-05-18T09:54:25;102985.31;;;11.47;49.43
36222;BME280;22266;52.340;4.962;2023-05-18T09:56:52;102979.94;;;11.37;49.85
36222;BME280;22266;52.340;4.962;2023-05-18T09:59:35;102973.59;;;11.29;50.35
36222;BME280;22266;52.340;4.962;2023-05-18T10:02:03;102979.09;;;11.37;50.03
36222;BME280;22266;52.340;4.962;2023-05-18T10:04:39;102980.38;;;11.43;50.78
36222;BME280;22266;52.340;4.962;2023-05-18T10:07:13;102974.22;;;11.50;49.69
36222;BME280;22266;52.340;4.962;2023-05-18T10:09:41;102973.09;;;11.53;50.42
36222;BME280;22266;52.340;4.962;2023-05-18T10:12:15;102970.66;;;11.59;49.99
36222;BME280;22266;52.340;4.962;2023-05-18T10:14:43;102976.59;;;11.63;49.67
36222;BME280;22266;52.340;4.962;2023-05-18T10:17:14;102980.53;;;11.69;51.82
36222;BME280;22266;52.340;4.962;2023-05-18T10:19:44;102966.56;;;12.10;55.33
36222;BME280;22266;52.340;4.962;2023-05-18T10:22:14;102971.53;;;12.33;50.91
36222;BME280;22266;52.340;4.962;2023-05-18T10:24:44;102974.69;;;12.46;51.59
36222;BME280;22266;52.340;4.962;2023-05-18T10:27:13;102968.59;;;12.44;48.34
36222;BME280;22266;52.340;4.962;2023-05-18T10:29:40;102971.72;;;12.40;48.46
36222;BME280;22266;52.340;4.962;2023-05-18T10:32:11;102969.41;;;12.27;47.40
36222;BME280;22266;52.340;4.962;2023-05-18T10:34:39;102963.31;;;12.07;48.90
36222;BME280;22266;52.340;4.962;2023-05-18T10:37:06;102968.31;;;12.02;48.79
36222;BME280;22266;52.340;4.962;2023-05-18T10:39:37;102961.91;;;12.03;49.61
36222;BME280;22266;52.340;4.962;2023-05-18T10:42:06;102964.31;;;12.06;49.35
36222;BME280;22266;52.340;4.962;2023-05-18T10:44:34;102965.31;;;12.05;49.72
36222;BME280;22266;52.340;4.962;2023-05-18T10:47:04;102962.00;;;12.11;49.09
36222;BME280;22266;52.340;4.962;2023-05-18T10:49:31;102963.84;;;12.10;48.95
36222;BME280;22266;52.340;4.962;2023-05-18T10:51:58;102962.41;;;12.16;50.07
36222;BME280;22266;52.340;4.962;2023-05-18T10:54:26;102959.94;;;12.23;48.61
36222;BME280;22266;52.340;4.962;2023-05-18T10:56:53;102952.28;;;12.18;48.32
36222;BME280;22266;52.340;4.962;2023-05-18T10:59:20;102945.88;;;12.19;50.01
36222;BME280;22266;52.340;4.962;2023-05-18T11:01:52;102949.69;;;12.26;49.77
36222;BME280;22266;52.340;4.962;2023-05-18T11:04:24;102951.06;;;12.30;49.39
36222;BME280;22266;52.340;4.962;2023-05-18T11:06:59;102942.19;;;12.38;49.63
36222;BME280;22266;52.340;4.962;2023-05-18T11:09:29;102950.13;;;12.40;47.70
36222;BME280;22266;52.340;4.962;2023-05-18T11:11:57;102951.38;;;12.27;48.91
36222;BME280;22266;52.340;4.962;2023-05-18T11:14:30;102946.66;;;12.29;49.64
36222;BME280;22266;52.340;4.962;2023-05-18T11:17:20;102949.44;;;12.37;49.73
36222;BME280;22266;52.340;4.962;2023-05-18T11:22:48;102945.28;;;12.25;48.71
36222;BME280;22266;52.340;4.962;2023-05-18T11:27:57;102951.28;;;12.01;48.62
36222;BME280;22266;52.340;4.962;2023-05-18T11:30:29;102944.19;;;12.00;50.23
36222;BME280;22266;52.340;4.962;2023-05-18T11:33:25;102942.66;;;12.16;51.50
36222;BME280;22266;52.340;4.962;2023-05-18T11:35:57;102941.44;;;12.28;50.08
36222;BME280;22266;52.340;4.962;2023-05-18T11:38:51;102945.13;;;12.27;48.70
36222;BME280;22266;52.340;4.962;2023-05-18T11:47:09;102931.94;;;12.24;48.92
36222;BME280;22266;52.340;4.962;2023-05-18T11:49:37;102920.34;;;12.31;49.85
36222;BME280;22266;52.340;4.962;2023-05-18T11:52:12;102914.63;;;12.34;49.13
36222;BME280;22266;52.340;4.962;2023-05-18T11:57:13;102911.25;;;12.32;49.76
36222;BME280;22266;52.340;4.962;2023-05-18T11:59:45;102908.94;;;12.37;49.55
36222;BME280;22266;52.340;4.962;2023-05-18T12:02:33;102907.56;;;12.33;48.21
36222;BME280;22266;52.340;4.962;2023-05-18T12:05:01;102902.75;;;12.45;50.22
36222;BME280;22266;52.340;4.962;2023-05-18T12:07:29;102898.28;;;12.54;50.15
36222;BME280;22266;52.340;4.962;2023-05-18T12:09:59;102901.03;;;12.62;48.76
36222;BME280;22266;52.340;4.962;2023-05-18T12:12:27;102888.53;;;12.43;48.52
36222;BME280;22266;52.340;4.962;2023-05-18T12:15:28;102891.13;;;12.45;49.43
36222;BME280;22266;52.340;4.962;2023-05-18T12:17:49;102889.44;;;12.44;49.29
36222;BME280;22266;52.340;4.962;2023-05-18T12:20:18;102890.94;;;12.46;49.88
36222;BME280;22266;52.340;4.962;2023-05-18T12:22:48;102886.44;;;12.55;49.46
36222;BME280;22266;52.340;4.962;2023-05-18T12:25:15;102888.22;;;12.64;49.30
36222;BME280;22266;52.340;4.962;2023-05-18T12:27:44;102884.50;;;12.65;49.74
36222;BME280;22266;52.340;4.962;2023-05-18T12:30:18;102885.59;;;12.72;50.05
36222;BME280;22266;52.340;4.962;2023-05-18T12:32:53;102889.84;;;12.83;49.56
36222;BME280;22266;52.340;4.962;2023-05-18T12:35:24;102885.34;;;12.92;49.93
36222;BME280;22266;52.340;4.962;2023-05-18T12:37:52;102884.41;;;13.01;50.30
36222;BME280;22266;52.340;4.962;2023-05-18T12:40:21;102884.28;;;13.10;49.42
36222;BME280;22266;52.340;4.962;2023-05-18T12:42:58;102882.75;;;13.08;48.79
36222;BME280;22266;52.340;4.962;2023-05-18T12:45:26;102888.81;;;13.02;48.92
36222;BME280;22266;52.340;4.962;2023-05-18T12:47:55;102877.25;;;12.92;47.28
36222;BME280;22266;52.340;4.962;2023-05-18T12:50:24;102877.72;;;12.87;48.92
36222;BME280;22266;52.340;4.962;2023-05-18T12:52:53;102879.00;;;13.01;49.48
36222;BME280;22266;52.340;4.962;2023-05-18T12:55:21;102868.53;;;13.06;49.09
36222;BME280;22266;52.340;4.962;2023-05-18T12:58:02;102871.56;;;13.03;47.90
36222;BME280;22266;52.340;4.962;2023-05-18T13:00:36;102872.53;;;12.94;48.83
36222;BME280;22266;52.340;4.962;2023-05-18T13:05:33;102871.13;;;13.16;49.12
36222;BME280;22266;52.340;4.962;2023-05-18T13:08:00;102865.66;;;13.33;50.99
36222;BME280;22266;52.340;4.962;2023-05-18T13:10:30;102863.56;;;13.62;54.07
36222;BME280;22266;52.340;4.962;2023-05-18T13:12:58;102859.41;;;13.92;53.25
36222;BME280;22266;52.340;4.962;2023-05-18T13:15:33;102857.53;;;14.08;50.40
36222;BME280;22266;52.340;4.962;2023-05-18T13:18:02;102858.03;;;13.96;46.03
36222;BME280;22266;52.340;4.962;2023-05-18T13:20:46;102849.56;;;13.74;46.71
36222;BME280;22266;52.340;4.962;2023-05-18T13:23:16;102852.75;;;13.70;47.60
36222;BME280;22266;52.340;4.962;2023-05-18T13:25:44;102849.03;;;13.71;47.44
36222;BME280;22266;52.340;4.962;2023-05-18T13:28:13;102843.31;;;13.74;48.85